createdAt,value
2022-08-10T00:00:24.374Z,16.95
2022-08-10T00:03:53.057Z,16.98
2022-08-10T00:07:20.775Z,16.98
2022-08-10T00:10:47.829Z,16.97
2022-08-10T00:14:14.987Z,16.94
2022-08-10T00:17:42.516Z,16.89
2022-08-10T00:21:11.190Z,16.86
2022-08-10T00:24:43.036Z,16.83
2022-08-10T00:28:10.571Z,16.76
2022-08-10T00:31:57.679Z,16.73
2022-08-10T00:35:24.744Z,16.71
2022-08-10T00:38:51.821Z,16.67
2022-08-10T00:42:19.545Z,16.64
2022-08-10T00:45:46.801Z,16.60
2022-08-10T00:49:27.043Z,16.59
2022-08-10T00:52:54.612Z,16.58
2022-08-10T00:57:14.983Z,16.57
2022-08-10T01:00:12.612Z,16.58
2022-08-10T01:04:36.135Z,16.58
2022-08-10T01:07:39.731Z,16.59
2022-08-10T01:12:37.441Z,16.60
2022-08-10T01:15:03.289Z,16.59
2022-08-10T01:18:40.134Z,16.55
2022-08-10T01:22:29.361Z,16.51
2022-08-10T01:26:30.721Z,16.46
2022-08-10T01:30:04.010Z,16.40
2022-08-10T01:34:02.332Z,16.34
2022-08-10T01:37:32.708Z,16.28
2022-08-10T01:41:04.635Z,16.29
2022-08-10T01:44:35.659Z,16.31
2022-08-10T01:48:23.360Z,16.32
2022-08-10T01:52:02.514Z,16.36
2022-08-10T01:55:30.893Z,16.40
2022-08-10T01:59:00.104Z,16.45
2022-08-10T02:02:28.738Z,16.50
2022-08-10T02:05:57.831Z,16.53
2022-08-10T02:09:27.784Z,16.57
2022-08-10T02:12:57.747Z,16.59
2022-08-10T02:16:27.045Z,16.60
2022-08-10T02:19:56.997Z,16.58
2022-08-10T02:23:27.208Z,16.54
2022-08-10T02:26:56.398Z,16.50
2022-08-10T02:30:28.057Z,16.44
2022-08-10T02:33:59.484Z,16.37
2022-08-10T02:37:29.575Z,16.30
2022-08-10T02:42:18.826Z,16.25
2022-08-10T02:45:22.448Z,16.20
2022-08-10T02:48:43.645Z,16.16
2022-08-10T02:52:18.395Z,16.17
2022-08-10T02:55:49.409Z,16.19
2022-08-10T02:59:23.549Z,16.20
2022-08-10T03:02:52.699Z,16.20
2022-08-10T03:06:26.975Z,16.21
2022-08-10T03:09:55.282Z,16.22
2022-08-10T03:13:24.092Z,16.19
2022-08-10T03:16:52.766Z,16.19
2022-08-10T03:20:37.155Z,16.18
2022-08-10T03:24:21.172Z,16.13
2022-08-10T03:27:55.215Z,16.10
2022-08-10T03:31:22.475Z,16.09
2022-08-10T03:34:50.253Z,16.06
2022-08-10T03:38:17.580Z,16.04
2022-08-10T03:41:53.625Z,16.03
2022-08-10T03:45:25.152Z,16.03
2022-08-10T03:48:57.979Z,16.02
2022-08-10T03:52:28.842Z,16.03
2022-08-10T03:56:28.001Z,16.03
2022-08-10T03:59:45.082Z,16.06
2022-08-10T04:03:12.888Z,16.10
2022-08-10T04:06:40.760Z,16.14
2022-08-10T04:10:08.497Z,16.21
2022-08-10T04:13:42.039Z,16.28
2022-08-10T04:17:13.789Z,16.32
2022-08-10T04:20:46.584Z,16.39
2022-08-10T04:24:26.930Z,16.44
2022-08-10T04:28:01.374Z,16.49
2022-08-10T04:31:33.003Z,16.53
2022-08-10T04:35:01.629Z,16.55
2022-08-10T04:38:31.064Z,16.56
2022-08-10T04:41:58.978Z,16.58
2022-08-10T04:45:49.612Z,16.60
2022-08-10T04:49:53.876Z,16.65
2022-08-10T04:53:00.668Z,16.68
2022-08-10T04:56:33.327Z,16.74
2022-08-10T05:00:00.390Z,16.82
2022-08-10T05:03:27.416Z,16.89
2022-08-10T05:06:54.755Z,17.00
2022-08-10T05:10:21.816Z,17.11
2022-08-10T05:13:48.834Z,17.22
2022-08-10T05:17:19.768Z,17.32
2022-08-10T05:20:50.173Z,17.45
2022-08-10T05:24:17.612Z,17.55
2022-08-10T05:27:45.802Z,17.61
2022-08-10T05:31:14.715Z,17.64
2022-08-10T05:34:51.342Z,17.65
2022-08-10T05:38:19.552Z,17.69
2022-08-10T05:41:51.091Z,17.75
2022-08-10T05:45:25.961Z,17.80
2022-08-10T05:48:56.617Z,17.85
2022-08-10T05:52:28.149Z,17.94
2022-08-10T05:55:55.879Z,18.06
2022-08-10T06:00:12.612Z,18.17
2022-08-10T06:03:12.517Z,18.30
2022-08-10T06:06:40.554Z,18.41
2022-08-10T06:10:10.719Z,18.52
2022-08-10T06:13:59.736Z,18.64
2022-08-10T06:17:42.436Z,18.79
2022-08-10T06:21:10.239Z,18.92
2022-08-10T06:25:04.582Z,19.05
2022-08-10T06:28:30.075Z,19.16
2022-08-10T06:31:59.044Z,19.23
2022-08-10T06:35:28.969Z,19.29
2022-08-10T06:39:16.773Z,19.35
2022-08-10T06:42:51.838Z,19.41
2022-08-10T06:46:21.934Z,19.44
2022-08-10T06:49:51.037Z,19.49
2022-08-10T06:53:22.654Z,19.55
2022-08-10T06:57:16.545Z,19.61
2022-08-10T07:00:44.520Z,19.70
2022-08-10T07:04:19.859Z,19.81
2022-08-10T07:08:03.311Z,19.94
2022-08-10T07:11:31.867Z,20.03
2022-08-10T07:15:03.777Z,20.11
2022-08-10T07:18:35.769Z,20.14
2022-08-10T07:22:05.142Z,20.19
2022-08-10T07:25:39.122Z,20.25
2022-08-10T07:29:09.190Z,20.32
2022-08-10T07:32:57.187Z,20.36
2022-08-10T07:36:26.930Z,20.36
2022-08-10T07:40:02.608Z,20.39
2022-08-10T07:43:35.861Z,20.45
2022-08-10T07:47:07.697Z,20.47
2022-08-10T07:50:36.144Z,20.53
2022-08-10T07:54:06.478Z,20.61
2022-08-10T07:57:39.999Z,20.71
2022-08-10T08:01:07.684Z,20.81
2022-08-10T08:04:39.419Z,20.89
2022-08-10T08:08:08.705Z,20.96
2022-08-10T08:11:38.075Z,21.05
2022-08-10T08:16:18.013Z,21.13
2022-08-10T08:24:09.976Z,21.19
2022-08-10T08:26:35.108Z,21.12
2022-08-10T08:30:03.079Z,21.06
2022-08-10T08:33:41.540Z,21.08
2022-08-10T08:38:29.781Z,21.13
2022-08-10T08:41:22.473Z,21.24
2022-08-10T08:45:04.912Z,21.39
2022-08-10T08:48:53.372Z,21.53
2022-08-10T08:52:37.291Z,21.67
2022-08-10T08:56:10.489Z,21.78
2022-08-10T09:00:02.248Z,21.96
2022-08-10T09:03:46.969Z,22.14
2022-08-10T09:07:59.739Z,22.26
2022-08-10T09:11:40.219Z,22.38
2022-08-10T09:15:09.744Z,22.44
2022-08-10T09:19:04.011Z,22.34
2022-08-10T09:22:40.635Z,22.34
2022-08-10T09:26:15.664Z,22.45
2022-08-10T09:29:49.060Z,22.60
2022-08-10T09:36:22.956Z,22.74
2022-08-10T09:37:14.907Z,22.86
2022-08-10T09:41:03.021Z,22.96
2022-08-10T09:44:58.081Z,23.09
2022-08-10T09:48:33.895Z,23.18
2022-08-10T09:52:11.749Z,23.23
2022-08-10T09:56:18.537Z,23.27
2022-08-10T10:00:00.002Z,23.45
2022-08-10T10:03:40.429Z,23.50
2022-08-10T10:07:10.873Z,23.54
2022-08-10T10:10:48.132Z,23.53
2022-08-10T10:14:24.258Z,23.55
2022-08-10T10:18:11.276Z,23.62
2022-08-10T10:21:54.681Z,23.51
2022-08-10T10:25:42.724Z,23.58
2022-08-10T10:29:56.608Z,23.84
2022-08-10T10:33:19.983Z,24.08
2022-08-10T10:36:49.118Z,24.28
2022-08-10T10:40:19.371Z,24.48
2022-08-10T10:43:58.266Z,24.66
2022-08-10T10:47:47.892Z,24.80
2022-08-10T10:51:23.944Z,25.03
2022-08-10T10:55:14.520Z,25.25
2022-08-10T10:58:49.347Z,25.42
2022-08-10T11:02:32.889Z,25.43
2022-08-10T11:06:11.660Z,25.21
2022-08-10T11:10:06.089Z,25.24
2022-08-10T11:14:24.500Z,25.13
2022-08-10T11:17:35.552Z,25.33
2022-08-10T11:21:13.995Z,25.52
2022-08-10T11:24:54.266Z,25.68
2022-08-10T11:28:31.061Z,25.89
2022-08-10T11:32:04.441Z,26.02
2022-08-10T11:35:45.131Z,26.07
2022-08-10T11:39:20.851Z,26.19
2022-08-10T11:43:01.271Z,26.40
2022-08-10T11:46:38.831Z,26.57
2022-08-10T11:50:13.521Z,26.73
2022-08-10T11:53:53.010Z,26.89
2022-08-10T11:57:54.422Z,27.05
2022-08-10T12:01:28.318Z,27.19
2022-08-10T12:05:03.871Z,27.34
2022-08-10T12:10:04.462Z,27.41
2022-08-10T12:12:22.397Z,27.25
2022-08-10T12:16:05.117Z,26.98
2022-08-10T12:20:01.652Z,26.69
2022-08-10T12:23:40.627Z,26.42
2022-08-10T12:27:19.611Z,26.20
2022-08-10T12:30:57.272Z,26.16
2022-08-10T12:34:36.208Z,26.66
2022-08-10T12:38:17.626Z,27.22
2022-08-10T12:41:53.158Z,27.67
2022-08-10T12:45:33.270Z,28.10
2022-08-10T12:49:12.206Z,28.50
2022-08-10T12:52:50.053Z,28.81
2022-08-10T12:56:27.715Z,29.00
2022-08-10T13:00:00.470Z,28.94
2022-08-10T13:04:20.822Z,28.73
2022-08-10T13:08:03.919Z,28.42
2022-08-10T13:12:34.151Z,28.52
2022-08-10T13:15:45.680Z,28.97
2022-08-10T13:19:05.070Z,29.48
2022-08-10T13:22:36.994Z,29.80
2022-08-10T13:26:07.495Z,30.10
2022-08-10T13:29:39.276Z,30.38
2022-08-10T13:33:13.946Z,30.66
2022-08-10T13:36:45.676Z,30.91
2022-08-10T13:40:16.875Z,31.21
2022-08-10T13:43:54.199Z,31.49
2022-08-10T13:47:29.019Z,31.66
2022-08-10T13:51:03.819Z,31.37
2022-08-10T13:54:41.907Z,30.89
2022-08-10T13:58:15.764Z,30.56
2022-08-10T14:01:47.760Z,30.31
2022-08-10T14:05:28.586Z,30.25
2022-08-10T14:09:05.460Z,30.32
2022-08-10T14:12:36.573Z,30.05
2022-08-10T14:16:10.568Z,30.15
2022-08-10T14:19:44.388Z,30.40
2022-08-10T14:23:21.700Z,30.67
2022-08-10T14:26:51.777Z,30.98
2022-08-10T14:30:20.912Z,31.23
2022-08-10T14:33:54.921Z,31.42
2022-08-10T14:37:26.118Z,31.70
2022-08-10T14:40:56.896Z,31.53
2022-08-10T14:44:26.538Z,31.41
2022-08-10T14:48:01.467Z,31.55
2022-08-10T14:51:44.513Z,31.44
2022-08-10T14:55:19.545Z,31.42
2022-08-10T14:59:06.054Z,31.31
2022-08-10T15:02:52.940Z,31.31
2022-08-10T15:06:30.776Z,31.45
2022-08-10T15:10:24.004Z,31.59
2022-08-10T15:14:14.805Z,31.65
2022-08-10T15:17:48.660Z,31.45
2022-08-10T15:21:20.571Z,31.29
2022-08-10T15:25:05.291Z,31.00
2022-08-10T15:29:23.761Z,30.66
2022-08-10T15:32:41.440Z,30.33
2022-08-10T15:36:32.683Z,30.06
2022-08-10T15:40:24.805Z,29.77
2022-08-10T15:43:59.537Z,29.45
2022-08-10T15:47:45.911Z,29.14
2022-08-10T15:51:54.209Z,28.90
2022-08-10T15:55:43.191Z,28.67
2022-08-10T15:59:18.408Z,28.44
2022-08-10T16:02:53.004Z,28.23
2022-08-10T16:06:30.252Z,28.04
2022-08-10T16:10:23.980Z,27.82
2022-08-10T16:14:01.337Z,27.59
2022-08-10T16:17:29.924Z,27.37
2022-08-10T16:21:21.669Z,27.17
2022-08-10T16:24:50.976Z,26.98
2022-08-10T16:28:19.972Z,26.82
2022-08-10T16:31:55.245Z,26.67
2022-08-10T16:35:23.802Z,26.55
2022-08-10T16:38:53.895Z,26.45
2022-08-10T16:42:23.871Z,26.32
2022-08-10T16:45:54.802Z,26.22
2022-08-10T16:49:24.515Z,26.17
2022-08-10T16:52:54.806Z,26.12
2022-08-10T16:56:31.594Z,26.02
2022-08-10T17:00:00.356Z,25.92
2022-08-10T17:04:07.891Z,25.83
2022-08-10T17:07:30.572Z,25.72
2022-08-10T17:11:00.936Z,25.63
2022-08-10T17:14:34.795Z,25.52
2022-08-10T17:18:09.853Z,25.41
2022-08-10T17:21:51.503Z,25.31
2022-08-10T17:25:23.998Z,25.21
2022-08-10T17:29:53.189Z,25.10
2022-08-10T17:33:04.917Z,24.98
2022-08-10T17:36:37.599Z,24.89
2022-08-10T17:40:09.154Z,24.78
2022-08-10T17:44:00.763Z,24.65
2022-08-10T17:47:27.776Z,24.53
2022-08-10T17:50:59.483Z,24.42
2022-08-10T17:54:31.633Z,24.32
2022-08-10T17:58:01.884Z,24.20
2022-08-10T18:01:41.346Z,24.06
2022-08-10T18:05:20.948Z,23.94
2022-08-10T18:09:00.742Z,23.84
2022-08-10T18:12:36.528Z,23.71
2022-08-10T18:16:07.755Z,23.57
2022-08-10T18:19:38.126Z,23.43
2022-08-10T18:23:06.632Z,23.27
2022-08-10T18:26:39.483Z,23.14
2022-08-10T18:30:10.682Z,23.02
2022-08-10T18:33:44.455Z,22.88
2022-08-10T18:37:20.250Z,22.71
2022-08-10T18:40:59.956Z,22.51
2022-08-10T18:44:34.528Z,22.34
2022-08-10T18:48:08.693Z,22.20
2022-08-10T18:51:46.599Z,22.07
2022-08-10T18:55:24.415Z,21.93
2022-08-10T18:59:10.662Z,21.80
2022-08-10T19:02:56.485Z,21.74
2022-08-10T19:06:56.211Z,21.70
2022-08-10T19:10:36.594Z,21.65
2022-08-10T19:14:09.923Z,21.62
2022-08-10T19:18:02.839Z,21.57
2022-08-10T19:21:39.262Z,21.52
2022-08-10T19:25:14.532Z,21.47
2022-08-10T19:28:49.622Z,21.44
2022-08-10T19:32:29.152Z,21.41
2022-08-10T19:36:13.859Z,21.38
2022-08-10T19:40:00.941Z,21.35
2022-08-10T19:44:01.234Z,21.32
2022-08-10T19:47:33.912Z,21.29
2022-08-10T19:51:08.178Z,21.27
2022-08-10T19:54:47.374Z,21.23
2022-08-10T19:58:22.555Z,21.20
2022-08-10T20:01:55.177Z,21.18
2022-08-10T20:05:33.311Z,21.15
2022-08-10T20:09:07.021Z,21.12
2022-08-10T20:12:43.063Z,21.05
2022-08-10T20:16:21.389Z,21.00
2022-08-10T20:19:55.488Z,20.95
2022-08-10T20:23:26.952Z,20.90
2022-08-10T20:27:13.144Z,20.85
2022-08-10T20:30:54.811Z,20.82
2022-08-10T20:34:26.179Z,20.76
2022-08-10T20:38:03.650Z,20.71
2022-08-10T20:41:43.945Z,20.65
2022-08-10T20:45:22.993Z,20.58
2022-08-10T20:48:58.842Z,20.53
2022-08-10T20:52:30.894Z,20.46
2022-08-10T20:56:10.575Z,20.41
2022-08-10T21:00:04.473Z,20.34
2022-08-10T21:03:51.534Z,20.28
2022-08-10T21:08:00.356Z,20.23
2022-08-10T21:11:39.542Z,20.15
2022-08-10T21:15:22.697Z,20.08
2022-08-10T21:19:01.656Z,20.02
2022-08-10T21:22:35.213Z,19.97
2022-08-10T21:26:10.227Z,19.92
2022-08-10T21:29:55.835Z,19.89
2022-08-10T21:33:35.083Z,19.81
2022-08-10T21:37:09.262Z,19.74
2022-08-10T21:40:42.497Z,19.69
2022-08-10T21:45:08.175Z,19.63
2022-08-10T21:49:23.058Z,19.55
2022-08-10T21:53:18.682Z,19.49
2022-08-10T21:57:09.912Z,19.43
2022-08-10T22:05:04.792Z,19.31
2022-08-10T22:08:57.672Z,19.25
2022-08-10T22:12:48.889Z,19.19
2022-08-10T22:16:48.480Z,19.12
2022-08-10T22:20:42.988Z,19.06
2022-08-10T22:28:48.560Z,18.94
2022-08-10T22:31:29.132Z,19.01
2022-08-10T22:32:42.988Z,18.91
2022-08-10T22:40:32.156Z,18.91
2022-08-10T22:44:27.366Z,18.86
2022-08-10T22:48:17.020Z,18.82
2022-08-10T22:52:00.105Z,18.78
2022-08-10T22:55:50.000Z,18.73
2022-08-10T22:59:27.593Z,18.67
2022-08-10T23:03:02.408Z,18.60
2022-08-10T23:06:32.574Z,18.51
2022-08-10T23:10:05.983Z,18.41
2022-08-10T23:13:37.223Z,18.32
2022-08-10T23:18:01.072Z,18.24
2022-08-10T23:21:19.972Z,18.14
2022-08-10T23:24:57.758Z,18.04
2022-08-10T23:28:38.780Z,17.98
2022-08-10T23:32:16.190Z,17.95
2022-08-10T23:36:05.614Z,17.95
2022-08-10T23:39:42.810Z,17.96
2022-08-10T23:43:16.871Z,17.95
2022-08-10T23:46:46.760Z,17.88
2022-08-10T23:50:17.540Z,17.86
2022-08-10T23:53:48.199Z,17.87
2022-08-10T23:57:20.697Z,17.87
